createdAt,value
2023-05-05T00:02:24.664Z,7.89
2023-05-05T00:04:52.661Z,7.91
2023-05-05T00:07:20.012Z,7.91
2023-05-05T00:09:48.754Z,7.95
2023-05-05T00:12:16.265Z,7.92
2023-05-05T00:14:43.634Z,7.94
2023-05-05T00:17:11.405Z,7.96
2023-05-05T00:19:38.863Z,7.99
2023-05-05T00:22:06.283Z,7.98
2023-05-05T00:24:33.751Z,7.99
2023-05-05T00:27:03.553Z,7.98
2023-05-05T00:29:31.563Z,7.96
2023-05-05T00:31:59.180Z,7.93
2023-05-05T00:34:26.450Z,7.85
2023-05-05T00:36:54.072Z,7.81
2023-05-05T00:39:21.480Z,7.74
2023-05-05T00:41:48.887Z,7.67
2023-05-05T00:44:17.654Z,7.64
2023-05-05T00:46:45.651Z,7.57
2023-05-05T00:49:13.433Z,7.56
2023-05-05T00:51:41.079Z,7.55
2023-05-05T00:54:08.773Z,7.54
2023-05-05T00:56:36.900Z,7.54
2023-05-05T00:59:04.538Z,7.52
2023-05-05T01:01:33.457Z,7.51
2023-05-05T01:04:00.817Z,7.41
2023-05-05T01:06:42.300Z,7.31
2023-05-05T01:09:24.699Z,7.26
2023-05-05T01:12:01.398Z,7.23
2023-05-05T01:14:39.776Z,7.18
2023-05-05T01:17:16.398Z,7.14
2023-05-05T01:20:01.686Z,7.09
2023-05-05T01:22:38.424Z,6.89
2023-05-05T01:25:49.152Z,6.78
2023-05-05T01:28:39.601Z,6.65
2023-05-05T01:31:17.946Z,6.61
2023-05-05T01:33:52.500Z,6.60
2023-05-05T01:36:28.684Z,6.67
2023-05-05T01:38:59.578Z,6.69
2023-05-05T01:41:30.756Z,6.64
2023-05-05T01:44:03.266Z,6.63
2023-05-05T01:46:33.264Z,6.60
2023-05-05T01:49:02.723Z,6.59
2023-05-05T01:51:33.207Z,6.59
2023-05-05T01:54:04.610Z,6.62
2023-05-05T01:56:33.146Z,6.65
2023-05-05T01:59:02.103Z,6.66
2023-05-05T02:01:30.573Z,6.68
2023-05-05T02:03:59.397Z,6.72
2023-05-05T02:06:32.488Z,6.71
2023-05-05T02:09:01.600Z,6.67
2023-05-05T02:11:29.895Z,6.60
2023-05-05T02:16:27.290Z,6.54
2023-05-05T02:18:57.262Z,6.54
2023-05-05T02:21:24.743Z,6.53
2023-05-05T02:23:53.356Z,6.49
2023-05-05T02:26:23.638Z,6.45
2023-05-05T02:28:58.743Z,6.41
2023-05-05T02:33:57.071Z,6.37
2023-05-05T02:36:29.247Z,6.21
2023-05-05T02:39:11.064Z,6.34
2023-05-05T02:41:41.519Z,6.35
2023-05-05T02:44:19.315Z,6.38
2023-05-05T02:46:47.417Z,6.45
2023-05-05T02:49:15.691Z,6.52
2023-05-05T02:51:43.526Z,6.60
2023-05-05T02:54:21.421Z,6.69
2023-05-05T02:56:51.141Z,6.76
2023-05-05T02:59:27.998Z,6.82
2023-05-05T03:02:10.902Z,6.88
2023-05-05T03:04:42.785Z,6.96
2023-05-05T03:07:14.482Z,6.96
2023-05-05T03:09:56.037Z,6.96
2023-05-05T03:12:31.511Z,7.02
2023-05-05T03:15:14.498Z,7.04
2023-05-05T03:17:44.410Z,6.94
2023-05-05T03:20:14.676Z,7.10
2023-05-05T03:22:45.527Z,7.15
2023-05-05T03:25:15.800Z,7.21
2023-05-05T03:27:43.174Z,7.29
2023-05-05T03:30:14.126Z,7.36
2023-05-05T03:32:48.661Z,7.46
2023-05-05T03:35:16.511Z,7.59
2023-05-05T03:37:43.731Z,7.67
2023-05-05T03:40:13.149Z,7.72
2023-05-05T03:42:42.739Z,7.74
2023-05-05T03:45:10.966Z,7.78
2023-05-05T03:47:39.752Z,7.60
2023-05-05T03:50:09.016Z,7.84
2023-05-05T03:52:36.942Z,7.91
2023-05-05T03:55:04.834Z,8.00
2023-05-05T03:57:33.075Z,7.99
2023-05-05T04:00:02.032Z,7.99
2023-05-05T04:02:30.509Z,8.08
2023-05-05T04:04:57.801Z,8.15
2023-05-05T04:07:25.237Z,8.30
2023-05-05T04:09:53.153Z,8.40
2023-05-05T04:12:21.022Z,8.46
2023-05-05T04:14:48.336Z,8.53
2023-05-05T04:17:17.361Z,8.58
2023-05-05T04:19:45.099Z,8.59
2023-05-05T04:22:13.344Z,8.57
2023-05-05T04:24:40.993Z,8.56
2023-05-05T04:27:08.341Z,8.47
2023-05-05T04:29:36.262Z,8.51
2023-05-05T04:32:03.988Z,8.55
2023-05-05T04:34:33.095Z,8.61
2023-05-05T04:37:00.783Z,8.71
2023-05-05T04:39:28.196Z,8.78
2023-05-05T04:41:55.475Z,8.90
2023-05-05T04:44:23.069Z,8.94
2023-05-05T04:46:50.623Z,8.97
2023-05-05T04:49:17.928Z,9.03
2023-05-05T04:51:46.899Z,9.08
2023-05-05T04:54:14.038Z,9.04
2023-05-05T04:56:41.267Z,8.85
2023-05-05T04:59:10.036Z,8.50
2023-05-05T05:01:38.589Z,8.29
2023-05-05T05:04:06.254Z,8.29
2023-05-05T05:06:34.076Z,8.44
2023-05-05T05:09:02.803Z,8.68
2023-05-05T05:11:30.099Z,8.81
2023-05-05T05:13:57.376Z,8.89
2023-05-05T05:16:25.401Z,8.86
2023-05-05T05:18:53.024Z,8.81
2023-05-05T05:21:20.699Z,8.75
2023-05-05T05:23:48.219Z,8.71
2023-05-05T05:26:16.996Z,8.48
2023-05-05T05:28:44.705Z,8.30
2023-05-05T05:31:12.626Z,8.32
2023-05-05T05:33:39.984Z,8.43
2023-05-05T05:36:07.933Z,8.68
2023-05-05T05:38:36.141Z,8.89
2023-05-05T05:41:08.071Z,9.08
2023-05-05T05:43:38.423Z,9.29
2023-05-05T05:46:08.820Z,9.48
2023-05-05T05:48:38.363Z,9.54
2023-05-05T05:51:05.828Z,9.53
2023-05-05T05:53:33.532Z,9.54
2023-05-05T05:56:01.643Z,9.58
2023-05-05T05:58:29.500Z,9.50
2023-05-05T06:00:59.979Z,9.38
2023-05-05T06:03:28.285Z,9.38
2023-05-05T06:05:56.138Z,9.31
2023-05-05T06:08:25.055Z,9.29
2023-05-05T06:10:54.056Z,9.38
2023-05-05T06:13:22.074Z,9.43
2023-05-05T06:15:51.322Z,9.52
2023-05-05T06:18:20.269Z,9.56
2023-05-05T06:20:50.052Z,9.57
2023-05-05T06:23:18.157Z,9.61
2023-05-05T06:25:51.309Z,9.60
2023-05-05T06:28:18.901Z,9.55
2023-05-05T06:30:46.298Z,9.57
2023-05-05T06:33:13.800Z,9.56
2023-05-05T06:35:42.527Z,9.81
2023-05-05T06:38:09.926Z,10.19
2023-05-05T06:40:37.075Z,10.47
2023-05-05T06:43:04.405Z,10.50
2023-05-05T06:45:36.826Z,10.49
2023-05-05T06:48:04.528Z,10.66
2023-05-05T06:50:32.185Z,11.00
2023-05-05T06:53:01.482Z,11.24
2023-05-05T06:55:28.890Z,11.41
2023-05-05T06:57:56.176Z,11.19
2023-05-05T07:00:23.890Z,10.93
2023-05-05T07:02:51.246Z,10.59
2023-05-05T07:05:18.738Z,10.35
2023-05-05T07:07:52.812Z,10.28
2023-05-05T07:10:22.719Z,10.21
2023-05-05T07:12:50.415Z,10.35
2023-05-05T07:15:28.134Z,10.55
2023-05-05T07:17:57.161Z,10.52
2023-05-05T07:20:24.807Z,10.50
2023-05-05T07:22:53.124Z,10.59
2023-05-05T07:25:22.063Z,10.71
2023-05-05T07:27:49.484Z,11.07
2023-05-05T07:30:18.765Z,11.51
2023-05-05T07:32:47.192Z,12.00
2023-05-05T07:35:14.539Z,12.19
2023-05-05T07:37:41.701Z,12.13
2023-05-05T07:40:09.898Z,11.97
2023-05-05T07:42:39.218Z,11.76
2023-05-05T07:45:07.552Z,11.58
2023-05-05T07:47:34.972Z,11.47
2023-05-05T07:50:02.361Z,11.32
2023-05-05T07:52:44.117Z,11.26
2023-05-05T07:55:13.659Z,11.11
2023-05-05T07:57:42.298Z,10.77
2023-05-05T08:00:11.021Z,10.46
2023-05-05T08:02:42.015Z,10.27
2023-05-05T08:05:09.768Z,10.09
2023-05-05T08:07:41.738Z,10.02
2023-05-05T08:10:10.742Z,9.95
2023-05-05T08:12:38.251Z,9.85
2023-05-05T08:15:08.760Z,9.78
2023-05-05T08:17:47.570Z,9.60
2023-05-05T08:20:15.336Z,9.34
2023-05-05T08:22:43.179Z,9.07
2023-05-05T08:25:11.295Z,8.98
2023-05-05T08:27:39.346Z,9.00
2023-05-05T08:30:12.046Z,9.03
2023-05-05T08:32:39.959Z,8.96
2023-05-05T08:35:08.314Z,8.82
2023-05-05T08:37:36.254Z,8.57
2023-05-05T08:40:04.743Z,8.49
2023-05-05T08:42:37.023Z,8.60
2023-05-05T08:45:10.365Z,8.66
2023-05-05T08:47:39.452Z,8.75
2023-05-05T08:50:10.712Z,8.79
2023-05-05T08:52:40.959Z,8.73
2023-05-05T08:55:15.546Z,8.80
2023-05-05T08:57:50.240Z,8.77
2023-05-05T09:00:21.041Z,8.71
2023-05-05T09:02:48.865Z,8.74
2023-05-05T09:05:17.172Z,8.77
2023-05-05T09:07:44.814Z,8.82
2023-05-05T09:10:12.839Z,8.76
2023-05-05T09:12:42.988Z,8.63
2023-05-05T09:15:12.167Z,8.47
2023-05-05T09:17:41.985Z,8.30
2023-05-05T09:20:14.056Z,8.11
2023-05-05T09:23:51.010Z,8.04
2023-05-05T09:26:18.633Z,7.66
2023-05-05T09:28:52.855Z,7.91
2023-05-05T09:31:20.307Z,8.02
2023-05-05T09:33:49.322Z,8.15
2023-05-05T09:36:16.661Z,8.20
2023-05-05T09:39:04.550Z,8.28
2023-05-05T09:41:38.788Z,8.37
2023-05-05T09:44:06.361Z,8.38
2023-05-05T09:46:34.234Z,8.64
2023-05-05T09:49:20.563Z,9.16
2023-05-05T09:51:48.482Z,9.30
2023-05-05T09:54:23.822Z,9.35
2023-05-05T09:56:52.412Z,9.46
2023-05-05T09:59:20.321Z,9.71
2023-05-05T10:01:48.949Z,9.91
2023-05-05T10:04:29.927Z,9.97
2023-05-05T10:06:58.584Z,9.76
2023-05-05T10:09:28.408Z,9.76
2023-05-05T10:11:58.188Z,9.71
2023-05-05T10:14:27.210Z,9.77
2023-05-05T10:16:56.041Z,9.61
2023-05-05T10:19:24.551Z,9.20
2023-05-05T10:21:54.727Z,8.84
2023-05-05T10:24:30.804Z,8.62
2023-05-05T10:27:00.161Z,8.38
2023-05-05T10:29:37.131Z,8.39
2023-05-05T10:32:33.465Z,8.47
2023-05-05T10:35:01.582Z,8.53
2023-05-05T10:37:33.925Z,8.53
2023-05-05T10:40:02.261Z,8.43
2023-05-05T10:42:32.418Z,8.39
2023-05-05T10:44:59.766Z,8.55
2023-05-05T10:47:28.732Z,8.51
2023-05-05T10:50:02.525Z,8.55
2023-05-05T10:52:37.520Z,8.52
2023-05-05T10:55:13.925Z,8.72
2023-05-05T10:57:43.991Z,8.77
2023-05-05T11:00:49.161Z,8.73
2023-05-05T11:03:21.908Z,8.82
2023-05-05T11:06:12.685Z,9.00
2023-05-05T11:08:43.060Z,9.20
2023-05-05T11:11:11.482Z,9.33
2023-05-05T11:13:40.077Z,9.39
2023-05-05T11:16:51.361Z,9.46
2023-05-05T11:19:47.854Z,9.49
2023-05-05T11:22:16.650Z,9.48
2023-05-05T11:24:45.875Z,9.43
2023-05-05T11:27:16.007Z,9.34
2023-05-05T11:30:07.005Z,9.00
2023-05-05T11:32:36.109Z,8.76
2023-05-05T11:35:04.238Z,8.77
2023-05-05T11:37:32.549Z,8.85
2023-05-05T11:40:16.726Z,8.95
2023-05-05T11:42:44.145Z,9.01
2023-05-05T11:45:22.611Z,9.23
2023-05-05T11:47:50.466Z,9.21
2023-05-05T11:50:21.004Z,9.15
2023-05-05T11:52:48.775Z,9.14
2023-05-05T11:55:23.718Z,9.17
2023-05-05T11:57:51.330Z,9.16
2023-05-05T12:00:19.345Z,9.18
2023-05-05T12:02:47.149Z,9.01
2023-05-05T12:05:20.582Z,9.02
2023-05-05T12:07:48.389Z,9.36
2023-05-05T12:10:25.027Z,9.68
2023-05-05T12:12:55.475Z,9.75
2023-05-05T12:15:30.768Z,9.78
2023-05-05T12:18:00.127Z,9.85
2023-05-05T12:20:31.814Z,9.97
2023-05-05T12:23:04.151Z,10.00
2023-05-05T12:25:39.791Z,10.13
2023-05-05T12:28:08.813Z,10.41
2023-05-05T12:30:36.333Z,10.66
2023-05-05T12:33:04.981Z,10.90
2023-05-05T12:35:33.451Z,10.98
2023-05-05T12:38:00.862Z,10.82
2023-05-05T12:40:47.490Z,10.38
2023-05-05T12:43:29.560Z,10.16
2023-05-05T12:46:01.951Z,9.98
2023-05-05T12:51:54.815Z,9.51
2023-05-05T12:54:29.597Z,9.94
2023-05-05T12:56:58.927Z,10.81
2023-05-05T12:59:30.298Z,11.23
2023-05-05T13:02:00.181Z,10.94
2023-05-05T13:04:29.156Z,10.90
2023-05-05T13:07:11.283Z,11.46
2023-05-05T13:09:38.951Z,12.24
2023-05-05T13:12:14.237Z,12.97
2023-05-05T13:14:42.058Z,13.70
2023-05-05T13:17:11.084Z,13.49
2023-05-05T13:19:42.664Z,13.53
2023-05-05T13:22:10.539Z,13.37
2023-05-05T13:24:47.120Z,12.77
2023-05-05T13:27:19.315Z,11.99
2023-05-05T13:29:46.868Z,11.48
2023-05-05T13:32:14.436Z,11.03
2023-05-05T13:34:43.665Z,11.14
2023-05-05T13:37:11.215Z,11.86
2023-05-05T13:39:38.660Z,12.59
2023-05-05T13:42:06.266Z,13.28
2023-05-05T13:44:35.759Z,13.36
2023-05-05T13:47:03.407Z,13.16
2023-05-05T13:49:30.808Z,13.20
2023-05-05T13:51:58.608Z,12.78
2023-05-05T13:54:26.225Z,12.70
2023-05-05T13:56:53.751Z,12.55
2023-05-05T13:59:21.944Z,12.49
2023-05-05T14:02:28.118Z,12.95
2023-05-05T14:04:57.223Z,13.34
2023-05-05T14:07:31.197Z,13.55
2023-05-05T14:11:03.975Z,13.96
2023-05-05T14:13:31.575Z,14.42
2023-05-05T14:15:59.001Z,14.54
2023-05-05T14:18:28.413Z,14.69
2023-05-05T14:21:02.706Z,14.57
2023-05-05T14:23:30.149Z,13.78
2023-05-05T14:25:57.865Z,13.02
2023-05-05T14:28:25.146Z,12.32
2023-05-05T14:30:52.580Z,12.09
2023-05-05T14:33:19.874Z,11.80
2023-05-05T14:35:47.360Z,11.40
2023-05-05T14:38:20.562Z,10.75
2023-05-05T14:40:48.312Z,10.22
2023-05-05T14:43:18.390Z,9.84
2023-05-05T14:45:51.148Z,9.71
2023-05-05T14:48:26.155Z,9.60
2023-05-05T14:50:55.242Z,9.52
2023-05-05T14:53:31.970Z,9.50
2023-05-05T14:56:10.239Z,9.51
2023-05-05T14:58:37.752Z,9.51
2023-05-05T15:01:05.351Z,9.53
2023-05-05T15:03:33.289Z,9.77
2023-05-05T15:06:00.829Z,10.21
2023-05-05T15:08:29.738Z,10.39
2023-05-05T15:10:57.178Z,10.61
2023-05-05T15:13:24.742Z,10.93
2023-05-05T15:15:52.107Z,11.11
2023-05-05T15:18:19.526Z,11.18
2023-05-05T15:20:46.891Z,11.24
2023-05-05T15:23:14.264Z,11.31
2023-05-05T15:25:43.241Z,11.42
2023-05-05T15:28:10.598Z,11.24
2023-05-05T15:30:38.032Z,11.02
2023-05-05T15:33:05.859Z,10.67
2023-05-05T15:35:33.366Z,10.24
2023-05-05T15:38:00.724Z,9.88
2023-05-05T15:40:28.126Z,9.61
2023-05-05T15:42:57.556Z,9.34
2023-05-05T15:45:25.124Z,9.11
2023-05-05T15:47:53.831Z,9.01
2023-05-05T15:50:21.993Z,8.95
2023-05-05T15:52:50.144Z,8.86
2023-05-05T15:55:17.748Z,8.83
2023-05-05T15:57:45.096Z,8.78
2023-05-05T16:00:15.144Z,8.73
2023-05-05T16:02:42.664Z,8.70
2023-05-05T16:05:10.775Z,8.58
2023-05-05T16:07:38.467Z,8.52
2023-05-05T16:10:06.874Z,8.46
2023-05-05T16:12:34.167Z,8.45
2023-05-05T16:15:01.777Z,8.45
2023-05-05T16:17:33.535Z,8.37
2023-05-05T16:20:00.992Z,8.31
2023-05-05T16:22:30.686Z,8.24
2023-05-05T16:24:58.123Z,8.19
2023-05-05T16:27:26.602Z,8.12
2023-05-05T16:29:54.017Z,8.08
2023-05-05T16:32:28.367Z,8.01
2023-05-05T16:35:09.381Z,7.94
2023-05-05T16:37:37.128Z,7.94
2023-05-05T16:40:23.600Z,7.91
2023-05-05T16:42:53.185Z,7.86
2023-05-05T16:45:20.454Z,7.80
2023-05-05T16:47:56.689Z,7.74
2023-05-05T16:50:33.562Z,7.75
2023-05-05T16:53:01.059Z,7.73
2023-05-05T16:55:28.509Z,7.69
2023-05-05T16:57:56.309Z,7.64
2023-05-05T17:00:23.862Z,7.58
2023-05-05T17:02:51.314Z,7.53
2023-05-05T17:05:18.839Z,7.48
2023-05-05T17:07:50.365Z,7.43
2023-05-05T17:10:17.878Z,7.36
2023-05-05T17:12:45.356Z,7.31
2023-05-05T17:15:12.881Z,7.24
2023-05-05T17:17:42.341Z,7.19
2023-05-05T17:20:12.185Z,7.12
2023-05-05T17:22:40.033Z,7.06
2023-05-05T17:25:10.195Z,7.03
2023-05-05T17:27:37.938Z,6.99
2023-05-05T17:30:06.828Z,6.92
2023-05-05T17:32:34.460Z,6.92
2023-05-05T17:35:01.893Z,6.86
2023-05-05T17:37:32.447Z,6.77
2023-05-05T17:39:59.928Z,6.70
2023-05-05T17:42:33.108Z,6.65
2023-05-05T17:45:00.790Z,6.60
2023-05-05T17:47:28.473Z,6.53
2023-05-05T17:49:56.919Z,6.52
2023-05-05T17:52:24.832Z,6.43
2023-05-05T17:54:52.670Z,6.36
2023-05-05T17:57:21.307Z,6.25
2023-05-05T17:59:50.581Z,6.21
2023-05-05T18:02:19.200Z,6.14
2023-05-05T18:04:46.734Z,6.12
2023-05-05T18:07:14.861Z,6.06
2023-05-05T18:09:42.460Z,5.99
2023-05-05T18:12:09.712Z,5.89
2023-05-05T18:14:37.194Z,5.84
2023-05-05T18:17:06.128Z,5.74
2023-05-05T18:19:33.406Z,5.58
2023-05-05T18:22:00.949Z,5.52
2023-05-05T18:24:28.360Z,5.46
2023-05-05T18:26:55.703Z,5.39
2023-05-05T18:29:23.142Z,5.30
2023-05-05T18:31:53.037Z,5.30
2023-05-05T18:34:22.195Z,5.30
2023-05-05T18:36:51.407Z,5.23
2023-05-05T18:39:19.354Z,5.22
2023-05-05T18:41:46.965Z,5.21
2023-05-05T18:44:14.354Z,5.17
2023-05-05T18:46:43.357Z,5.13
2023-05-05T18:49:10.683Z,5.07
2023-05-05T18:51:39.596Z,4.99
2023-05-05T18:54:07.002Z,4.90
2023-05-05T18:56:34.553Z,4.84
2023-05-05T18:59:02.005Z,4.76
2023-05-05T19:01:29.511Z,4.68
2023-05-05T19:03:57.177Z,4.62
2023-05-05T19:06:24.653Z,4.56
2023-05-05T19:08:53.624Z,4.47
2023-05-05T19:11:21.002Z,4.46
2023-05-05T19:13:48.420Z,4.41
2023-05-05T19:16:16.031Z,4.33
2023-05-05T19:18:43.738Z,4.20
2023-05-05T19:21:11.205Z,4.10
2023-05-05T19:23:38.911Z,4.03
2023-05-05T19:26:07.780Z,3.99
2023-05-05T19:28:35.115Z,3.98
2023-05-05T19:31:02.602Z,3.99
2023-05-05T19:33:30.017Z,4.01
2023-05-05T19:35:57.544Z,4.04
2023-05-05T19:38:25.053Z,4.06
2023-05-05T19:40:54.171Z,4.04
2023-05-05T19:43:23.435Z,4.08
2023-05-05T19:45:50.763Z,4.09
2023-05-05T19:48:18.206Z,4.12
2023-05-05T19:50:45.572Z,4.14
2023-05-05T19:53:13.010Z,4.14
2023-05-05T19:55:46.317Z,4.17
2023-05-05T19:58:14.181Z,4.17
2023-05-05T20:00:43.114Z,4.13
2023-05-05T20:03:11.223Z,4.11
2023-05-05T20:05:38.930Z,4.04
2023-05-05T20:08:06.344Z,4.00
2023-05-05T20:10:33.803Z,3.95
2023-05-05T20:13:01.392Z,3.91
2023-05-05T20:15:28.895Z,3.87
2023-05-05T20:17:58.308Z,3.86
2023-05-05T20:20:25.888Z,3.83
2023-05-05T20:22:53.605Z,3.82
2023-05-05T20:25:20.931Z,3.81
2023-05-05T20:27:48.527Z,3.80
2023-05-05T20:30:16.240Z,3.79
2023-05-05T20:32:43.643Z,3.76
2023-05-05T20:35:15.927Z,3.71
2023-05-05T20:37:45.257Z,3.59
2023-05-05T20:40:13.710Z,3.67
2023-05-05T20:42:41.330Z,3.64
2023-05-05T20:45:10.741Z,3.61
2023-05-05T20:47:38.331Z,3.62
2023-05-05T20:50:09.773Z,3.61
2023-05-05T20:52:58.930Z,3.51
2023-05-05T20:55:42.811Z,3.54
2023-05-05T20:58:10.161Z,3.53
2023-05-05T21:00:37.515Z,3.50
2023-05-05T21:03:05.147Z,3.49
2023-05-05T21:05:32.723Z,3.45
2023-05-05T21:08:01.967Z,3.44
2023-05-05T21:10:29.462Z,3.44
2023-05-05T21:12:57.018Z,3.44
2023-05-05T21:15:25.073Z,3.44
2023-05-05T21:17:52.422Z,3.41
2023-05-05T21:20:20.078Z,3.38
2023-05-05T21:22:47.314Z,3.33
2023-05-05T21:25:17.324Z,3.30
2023-05-05T21:27:45.009Z,3.27
2023-05-05T21:30:13.105Z,3.22
2023-05-05T21:32:41.331Z,3.14
2023-05-05T21:35:09.565Z,3.07
2023-05-05T21:37:37.560Z,3.08
2023-05-05T21:40:06.152Z,3.05
2023-05-05T21:42:35.562Z,3.04
2023-05-05T21:45:03.228Z,3.01
2023-05-05T21:47:32.213Z,2.98
2023-05-05T21:49:59.663Z,2.91
2023-05-05T21:52:27.095Z,2.94
2023-05-05T21:54:54.529Z,2.93
2023-05-05T21:57:22.044Z,2.90
2023-05-05T21:59:51.043Z,2.93
2023-05-05T22:02:18.596Z,2.92
2023-05-05T22:04:48.788Z,2.90
2023-05-05T22:07:16.495Z,2.82
2023-05-05T22:09:43.865Z,2.86
2023-05-05T22:12:11.576Z,2.83
2023-05-05T22:14:39.093Z,2.81
2023-05-05T22:17:07.987Z,2.78
2023-05-05T22:19:35.333Z,2.75
2023-05-05T22:22:03.071Z,2.73
2023-05-05T22:24:30.612Z,2.72
2023-05-05T22:26:58.387Z,2.70
2023-05-05T22:29:47.152Z,2.64
2023-05-05T22:32:16.092Z,2.69
2023-05-05T22:34:43.408Z,2.69
2023-05-05T22:37:10.774Z,2.69
2023-05-05T22:39:38.427Z,2.68
2023-05-05T22:42:06.078Z,2.64
2023-05-05T22:44:33.415Z,2.60
2023-05-05T22:47:01.207Z,2.57
2023-05-05T22:49:30.137Z,2.52
2023-05-05T22:51:57.974Z,2.50
2023-05-05T22:54:25.423Z,2.46
2023-05-05T22:56:52.901Z,2.45
2023-05-05T22:59:20.507Z,2.44
2023-05-05T23:01:48.206Z,2.38
2023-05-05T23:04:15.889Z,2.39
2023-05-05T23:06:45.085Z,2.38
2023-05-05T23:09:12.923Z,2.35
2023-05-05T23:11:40.488Z,2.33
2023-05-05T23:14:07.942Z,2.30
2023-05-05T23:16:35.313Z,2.27
2023-05-05T23:19:02.811Z,2.25
2023-05-05T23:21:32.071Z,2.22
2023-05-05T23:24:02.710Z,2.16
2023-05-05T23:26:30.777Z,2.12
2023-05-05T23:28:58.272Z,2.08
2023-05-05T23:31:26.012Z,2.05
2023-05-05T23:33:53.445Z,2.02
2023-05-05T23:36:20.693Z,2.00
2023-05-05T23:38:48.250Z,1.93
2023-05-05T23:41:18.443Z,1.93
2023-05-05T23:43:45.837Z,1.90
2023-05-05T23:46:13.399Z,1.87
2023-05-05T23:48:40.860Z,1.85
2023-05-05T23:51:08.449Z,1.79
2023-05-05T23:53:35.853Z,1.79
2023-05-05T23:56:03.514Z,1.77
2023-05-05T23:58:32.469Z,1.77
